sensor_id;sensor_type;location;lat;lon;timestamp;P1;durP1;ratioP1;P2;durP2;ratioP2
38465;SDS011;24244;51.950;5.902;2023-04-03T00:00:53;1.40;;;0.98;;
38465;SDS011;24244;51.950;5.902;2023-04-03T00:03:20;1.80;;;1.00;;
38465;SDS011;24244;51.950;5.902;2023-04-03T00:05:50;1.25;;;0.88;;
38465;SDS011;24244;51.950;5.902;2023-04-03T00:08:17;1.05;;;0.95;;
38465;SDS011;24244;51.950;5.902;2023-04-03T00:10:45;2.15;;;0.90;;
38465;SDS011;24244;51.950;5.902;2023-04-03T00:13:13;0.82;;;0.73;;
38465;SDS011;24244;51.950;5.902;2023-04-03T00:15:41;1.55;;;0.70;;
38465;SDS011;24244;51.950;5.902;2023-04-03T00:18:08;1.45;;;0.73;;
38465;SDS011;24244;51.950;5.902;2023-04-03T00:20:37;1.58;;;1.00;;
38465;SDS011;24244;51.950;5.902;2023-04-03T00:23:04;1.88;;;1.25;;
38465;SDS011;24244;51.950;5.902;2023-04-03T00:25:31;1.50;;;0.93;;
38465;SDS011;24244;51.950;5.902;2023-04-03T00:28:02;1.70;;;1.13;;
38465;SDS011;24244;51.950;5.902;2023-04-03T00:30:34;2.45;;;0.88;;
38465;SDS011;24244;51.950;5.902;2023-04-03T00:33:02;1.83;;;1.15;;
38465;SDS011;24244;51.950;5.902;2023-04-03T00:35:29;1.10;;;0.90;;
38465;SDS011;24244;51.950;5.902;2023-04-03T00:37:57;1.10;;;0.98;;
38465;SDS011;24244;51.950;5.902;2023-04-03T00:40:24;2.03;;;1.10;;
38465;SDS011;24244;51.950;5.902;2023-04-03T00:42:55;1.17;;;1.05;;
38465;SDS011;24244;51.950;5.902;2023-04-03T00:45:27;1.88;;;1.00;;
38465;SDS011;24244;51.950;5.902;2023-04-03T00:48:01;1.40;;;0.80;;
38465;SDS011;24244;51.950;5.902;2023-04-03T00:50:33;2.60;;;0.65;;
38465;SDS011;24244;51.950;5.902;2023-04-03T00:53:02;1.58;;;1.08;;
38465;SDS011;24244;51.950;5.902;2023-04-03T00:55:32;1.95;;;0.70;;
38465;SDS011;24244;51.950;5.902;2023-04-03T00:58:02;2.17;;;1.23;;
38465;SDS011;24244;51.950;5.902;2023-04-03T01:00:29;1.98;;;1.52;;
38465;SDS011;24244;51.950;5.902;2023-04-03T01:02:57;1.80;;;0.70;;
38465;SDS011;24244;51.950;5.902;2023-04-03T01:05:25;1.88;;;0.60;;
38465;SDS011;24244;51.950;5.902;2023-04-03T01:07:52;0.98;;;0.47;;
38465;SDS011;24244;51.950;5.902;2023-04-03T01:10:20;1.75;;;0.95;;
38465;SDS011;24244;51.950;5.902;2023-04-03T01:12:48;2.25;;;1.40;;
38465;SDS011;24244;51.950;5.902;2023-04-03T01:15:17;1.58;;;1.15;;
38465;SDS011;24244;51.950;5.902;2023-04-03T01:17:46;1.63;;;0.98;;
38465;SDS011;24244;51.950;5.902;2023-04-03T01:23:32;2.15;;;1.00;;
38465;SDS011;24244;51.950;5.902;2023-04-03T01:26:18;2.13;;;1.70;;
38465;SDS011;24244;51.950;5.902;2023-04-03T01:28:46;2.17;;;1.15;;
38465;SDS011;24244;51.950;5.902;2023-04-03T01:31:15;4.03;;;0.80;;
38465;SDS011;24244;51.950;5.902;2023-04-03T01:33:50;1.15;;;0.90;;
38465;SDS011;24244;51.950;5.902;2023-04-03T01:36:18;2.88;;;0.68;;
38465;SDS011;24244;51.950;5.902;2023-04-03T01:38:47;1.48;;;1.17;;
38465;SDS011;24244;51.950;5.902;2023-04-03T01:41:14;1.25;;;0.68;;
38465;SDS011;24244;51.950;5.902;2023-04-03T01:43:42;3.35;;;1.08;;
38465;SDS011;24244;51.950;5.902;2023-04-03T01:46:09;2.78;;;1.13;;
38465;SDS011;24244;51.950;5.902;2023-04-03T01:48:36;4.05;;;1.23;;
38465;SDS011;24244;51.950;5.902;2023-04-03T01:51:05;2.83;;;1.35;;
38465;SDS011;24244;51.950;5.902;2023-04-03T01:53:32;2.58;;;1.27;;
38465;SDS011;24244;51.950;5.902;2023-04-03T01:55:59;1.45;;;1.10;;
38465;SDS011;24244;51.950;5.902;2023-04-03T01:58:26;1.48;;;1.15;;
38465;SDS011;24244;51.950;5.902;2023-04-03T02:00:54;2.15;;;1.38;;
38465;SDS011;24244;51.950;5.902;2023-04-03T02:06:07;2.08;;;1.02;;
38465;SDS011;24244;51.950;5.902;2023-04-03T02:08:35;1.50;;;1.17;;
38465;SDS011;24244;51.950;5.902;2023-04-03T02:11:03;1.55;;;0.90;;
38465;SDS011;24244;51.950;5.902;2023-04-03T02:13:30;2.95;;;1.10;;
38465;SDS011;24244;51.950;5.902;2023-04-03T02:15:57;2.40;;;1.08;;
38465;SDS011;24244;51.950;5.902;2023-04-03T02:18:25;2.33;;;1.42;;
38465;SDS011;24244;51.950;5.902;2023-04-03T02:20:52;1.42;;;0.75;;
38465;SDS011;24244;51.950;5.902;2023-04-03T02:23:20;1.98;;;1.27;;
38465;SDS011;24244;51.950;5.902;2023-04-03T02:25:47;4.40;;;1.58;;
38465;SDS011;24244;51.950;5.902;2023-04-03T02:28:17;1.63;;;1.08;;
38465;SDS011;24244;51.950;5.902;2023-04-03T02:30:44;2.00;;;1.10;;
38465;SDS011;24244;51.950;5.902;2023-04-03T02:33:12;1.83;;;1.17;;
38465;SDS011;24244;51.950;5.902;2023-04-03T02:35:39;2.50;;;1.15;;
38465;SDS011;24244;51.950;5.902;2023-04-03T02:38:06;3.42;;;1.25;;
38465;SDS011;24244;51.950;5.902;2023-04-03T02:40:34;1.23;;;0.57;;
38465;SDS011;24244;51.950;5.902;2023-04-03T02:43:01;2.03;;;1.10;;
38465;SDS011;24244;51.950;5.902;2023-04-03T02:45:28;3.10;;;0.60;;
38465;SDS011;24244;51.950;5.902;2023-04-03T02:47:55;1.73;;;1.13;;
38465;SDS011;24244;51.950;5.902;2023-04-03T02:50:22;2.28;;;1.50;;
38465;SDS011;24244;51.950;5.902;2023-04-03T02:52:48;1.60;;;1.08;;
38465;SDS011;24244;51.950;5.902;2023-04-03T02:55:15;1.75;;;1.25;;
38465;SDS011;24244;51.950;5.902;2023-04-03T02:57:44;2.00;;;0.70;;
38465;SDS011;24244;51.950;5.902;2023-04-03T03:00:12;1.80;;;0.82;;
38465;SDS011;24244;51.950;5.902;2023-04-03T03:02:40;2.15;;;0.82;;
38465;SDS011;24244;51.950;5.902;2023-04-03T03:05:07;1.95;;;0.82;;
38465;SDS011;24244;51.950;5.902;2023-04-03T03:07:43;1.73;;;0.88;;
38465;SDS011;24244;51.950;5.902;2023-04-03T03:10:10;1.67;;;1.00;;
38465;SDS011;24244;51.950;5.902;2023-04-03T03:12:37;1.13;;;1.02;;
38465;SDS011;24244;51.950;5.902;2023-04-03T03:15:07;1.80;;;1.17;;
38465;SDS011;24244;51.950;5.902;2023-04-03T03:17:34;3.55;;;1.13;;
38465;SDS011;24244;51.950;5.902;2023-04-03T03:20:02;2.35;;;1.42;;
38465;SDS011;24244;51.950;5.902;2023-04-03T03:22:29;1.30;;;1.10;;
38465;SDS011;24244;51.950;5.902;2023-04-03T03:24:58;2.95;;;1.30;;
38465;SDS011;24244;51.950;5.902;2023-04-03T03:27:25;1.65;;;1.25;;
38465;SDS011;24244;51.950;5.902;2023-04-03T03:32:57;1.45;;;1.05;;
38465;SDS011;24244;51.950;5.902;2023-04-03T03:35:25;4.30;;;0.95;;
38465;SDS011;24244;51.950;5.902;2023-04-03T03:37:52;2.78;;;1.52;;
38465;SDS011;24244;51.950;5.902;2023-04-03T03:40:19;2.60;;;0.90;;
38465;SDS011;24244;51.950;5.902;2023-04-03T03:42:46;2.47;;;1.35;;
38465;SDS011;24244;51.950;5.902;2023-04-03T03:45:13;1.65;;;1.17;;
38465;SDS011;24244;51.950;5.902;2023-04-03T03:47:41;4.32;;;1.45;;
38465;SDS011;24244;51.950;5.902;2023-04-03T03:50:09;1.50;;;1.20;;
38465;SDS011;24244;51.950;5.902;2023-04-03T03:52:38;2.97;;;1.20;;
38465;SDS011;24244;51.950;5.902;2023-04-03T03:55:05;2.08;;;1.25;;
38465;SDS011;24244;51.950;5.902;2023-04-03T03:57:34;3.03;;;1.48;;
38465;SDS011;24244;51.950;5.902;2023-04-03T04:00:01;1.70;;;1.23;;
38465;SDS011;24244;51.950;5.902;2023-04-03T04:02:29;2.20;;;1.08;;
38465;SDS011;24244;51.950;5.902;2023-04-03T04:04:57;3.22;;;1.30;;
38465;SDS011;24244;51.950;5.902;2023-04-03T04:07:25;2.70;;;1.30;;
38465;SDS011;24244;51.950;5.902;2023-04-03T04:09:55;2.55;;;1.40;;
38465;SDS011;24244;51.950;5.902;2023-04-03T04:12:22;1.52;;;1.20;;
38465;SDS011;24244;51.950;5.902;2023-04-03T04:14:49;3.00;;;1.60;;
38465;SDS011;24244;51.950;5.902;2023-04-03T04:17:16;2.00;;;1.23;;
38465;SDS011;24244;51.950;5.902;2023-04-03T04:19:43;2.65;;;1.45;;
38465;SDS011;24244;51.950;5.902;2023-04-03T04:22:11;1.50;;;1.15;;
38465;SDS011;24244;51.950;5.902;2023-04-03T04:24:41;2.75;;;1.20;;
38465;SDS011;24244;51.950;5.902;2023-04-03T04:27:09;2.15;;;1.23;;
38465;SDS011;24244;51.950;5.902;2023-04-03T04:29:36;4.28;;;2.00;;
38465;SDS011;24244;51.950;5.902;2023-04-03T04:32:05;3.88;;;1.50;;
38465;SDS011;24244;51.950;5.902;2023-04-03T04:34:31;2.40;;;1.30;;
38465;SDS011;24244;51.950;5.902;2023-04-03T04:36:59;1.67;;;0.90;;
38465;SDS011;24244;51.950;5.902;2023-04-03T04:39:26;2.55;;;1.30;;
38465;SDS011;24244;51.950;5.902;2023-04-03T04:41:54;2.25;;;1.25;;
38465;SDS011;24244;51.950;5.902;2023-04-03T04:44:21;1.73;;;1.25;;
38465;SDS011;24244;51.950;5.902;2023-04-03T04:46:48;2.13;;;0.98;;
38465;SDS011;24244;51.950;5.902;2023-04-03T04:49:15;4.90;;;1.38;;
38465;SDS011;24244;51.950;5.902;2023-04-03T04:51:42;2.55;;;1.40;;
38465;SDS011;24244;51.950;5.902;2023-04-03T04:54:18;2.15;;;1.20;;
38465;SDS011;24244;51.950;5.902;2023-04-03T04:56:47;1.85;;;1.13;;
38465;SDS011;24244;51.950;5.902;2023-04-03T04:59:15;2.00;;;1.38;;
38465;SDS011;24244;51.950;5.902;2023-04-03T05:01:45;1.50;;;1.27;;
38465;SDS011;24244;51.950;5.902;2023-04-03T05:04:12;2.38;;;1.27;;
38465;SDS011;24244;51.950;5.902;2023-04-03T05:06:39;2.35;;;1.30;;
38465;SDS011;24244;51.950;5.902;2023-04-03T05:09:06;2.58;;;1.30;;
38465;SDS011;24244;51.950;5.902;2023-04-03T05:11:33;2.63;;;1.27;;
38465;SDS011;24244;51.950;5.902;2023-04-03T05:14:02;2.80;;;1.35;;
38465;SDS011;24244;51.950;5.902;2023-04-03T05:16:33;1.38;;;1.10;;
38465;SDS011;24244;51.950;5.902;2023-04-03T05:19:00;4.10;;;1.13;;
38465;SDS011;24244;51.950;5.902;2023-04-03T05:21:27;2.95;;;1.10;;
38465;SDS011;24244;51.950;5.902;2023-04-03T05:23:59;2.45;;;0.55;;
38465;SDS011;24244;51.950;5.902;2023-04-03T05:26:29;2.15;;;1.30;;
38465;SDS011;24244;51.950;5.902;2023-04-03T05:28:58;1.15;;;0.82;;
38465;SDS011;24244;51.950;5.902;2023-04-03T05:31:29;4.43;;;1.77;;
38465;SDS011;24244;51.950;5.902;2023-04-03T05:34:10;2.03;;;1.40;;
38465;SDS011;24244;51.950;5.902;2023-04-03T05:36:37;2.42;;;1.40;;
38465;SDS011;24244;51.950;5.902;2023-04-03T05:39:04;1.48;;;1.20;;
38465;SDS011;24244;51.950;5.902;2023-04-03T05:41:31;2.58;;;1.30;;
38465;SDS011;24244;51.950;5.902;2023-04-03T05:43:58;2.25;;;1.35;;
38465;SDS011;24244;51.950;5.902;2023-04-03T05:46:26;1.80;;;1.30;;
38465;SDS011;24244;51.950;5.902;2023-04-03T05:48:53;1.63;;;1.42;;
38465;SDS011;24244;51.950;5.902;2023-04-03T05:51:24;4.20;;;1.10;;
38465;SDS011;24244;51.950;5.902;2023-04-03T05:53:59;4.15;;;1.40;;
38465;SDS011;24244;51.950;5.902;2023-04-03T05:56:29;1.30;;;1.08;;
38465;SDS011;24244;51.950;5.902;2023-04-03T05:58:56;2.67;;;1.33;;
38465;SDS011;24244;51.950;5.902;2023-04-03T06:01:23;2.72;;;1.13;;
38465;SDS011;24244;51.950;5.902;2023-04-03T06:03:50;1.63;;;1.20;;
38465;SDS011;24244;51.950;5.902;2023-04-03T06:06:17;2.65;;;1.40;;
38465;SDS011;24244;51.950;5.902;2023-04-03T06:08:45;1.35;;;1.25;;
38465;SDS011;24244;51.950;5.902;2023-04-03T06:11:12;2.47;;;1.55;;
38465;SDS011;24244;51.950;5.902;2023-04-03T06:13:44;2.40;;;1.60;;
38465;SDS011;24244;51.950;5.902;2023-04-03T06:16:12;1.60;;;0.60;;
38465;SDS011;24244;51.950;5.902;2023-04-03T06:18:41;2.00;;;1.17;;
38465;SDS011;24244;51.950;5.902;2023-04-03T06:21:08;1.95;;;1.10;;
38465;SDS011;24244;51.950;5.902;2023-04-03T06:23:36;2.35;;;1.38;;
38465;SDS011;24244;51.950;5.902;2023-04-03T06:26:04;1.90;;;1.23;;
38465;SDS011;24244;51.950;5.902;2023-04-03T06:28:31;2.15;;;1.40;;
38465;SDS011;24244;51.950;5.902;2023-04-03T06:30:58;3.30;;;1.52;;
38465;SDS011;24244;51.950;5.902;2023-04-03T06:33:27;1.60;;;1.40;;
38465;SDS011;24244;51.950;5.902;2023-04-03T06:35:57;2.15;;;1.40;;
38465;SDS011;24244;51.950;5.902;2023-04-03T06:38:25;1.50;;;1.15;;
38465;SDS011;24244;51.950;5.902;2023-04-03T06:40:52;3.22;;;1.40;;
38465;SDS011;24244;51.950;5.902;2023-04-03T06:43:20;2.42;;;1.67;;
38465;SDS011;24244;51.950;5.902;2023-04-03T06:45:49;1.73;;;1.40;;
38465;SDS011;24244;51.950;5.902;2023-04-03T06:48:16;4.78;;;0.75;;
38465;SDS011;24244;51.950;5.902;2023-04-03T06:50:44;1.52;;;1.10;;
38465;SDS011;24244;51.950;5.902;2023-04-03T06:53:11;1.58;;;1.30;;
38465;SDS011;24244;51.950;5.902;2023-04-03T06:55:39;2.65;;;1.17;;
38465;SDS011;24244;51.950;5.902;2023-04-03T06:58:07;2.65;;;1.35;;
38465;SDS011;24244;51.950;5.902;2023-04-03T07:00:38;2.40;;;1.67;;
38465;SDS011;24244;51.950;5.902;2023-04-03T07:03:05;2.20;;;1.45;;
38465;SDS011;24244;51.950;5.902;2023-04-03T07:05:32;3.17;;;1.10;;
38465;SDS011;24244;51.950;5.902;2023-04-03T07:08:00;1.83;;;1.30;;
38465;SDS011;24244;51.950;5.902;2023-04-03T07:10:27;1.48;;;1.27;;
38465;SDS011;24244;51.950;5.902;2023-04-03T07:12:54;2.40;;;1.33;;
38465;SDS011;24244;51.950;5.902;2023-04-03T07:15:21;2.88;;;1.20;;
38465;SDS011;24244;51.950;5.902;2023-04-03T07:17:49;1.92;;;1.63;;
38465;SDS011;24244;51.950;5.902;2023-04-03T07:20:16;4.88;;;1.33;;
38465;SDS011;24244;51.950;5.902;2023-04-03T07:22:44;1.85;;;1.30;;
38465;SDS011;24244;51.950;5.902;2023-04-03T07:25:11;2.83;;;1.35;;
38465;SDS011;24244;51.950;5.902;2023-04-03T07:27:39;2.50;;;1.25;;
38465;SDS011;24244;51.950;5.902;2023-04-03T07:30:07;2.33;;;1.23;;
38465;SDS011;24244;51.950;5.902;2023-04-03T07:32:36;2.90;;;1.33;;
38465;SDS011;24244;51.950;5.902;2023-04-03T07:35:05;2.13;;;1.50;;
38465;SDS011;24244;51.950;5.902;2023-04-03T07:37:33;3.67;;;1.48;;
38465;SDS011;24244;51.950;5.902;2023-04-03T07:40:00;2.15;;;1.08;;
38465;SDS011;24244;51.950;5.902;2023-04-03T07:42:29;2.50;;;1.23;;
38465;SDS011;24244;51.950;5.902;2023-04-03T07:44:56;3.33;;;1.38;;
38465;SDS011;24244;51.950;5.902;2023-04-03T07:47:23;3.30;;;1.30;;
38465;SDS011;24244;51.950;5.902;2023-04-03T07:49:50;1.23;;;1.13;;
38465;SDS011;24244;51.950;5.902;2023-04-03T07:52:19;1.63;;;1.00;;
38465;SDS011;24244;51.950;5.902;2023-04-03T07:54:46;3.08;;;1.30;;
38465;SDS011;24244;51.950;5.902;2023-04-03T07:57:13;2.67;;;1.40;;
38465;SDS011;24244;51.950;5.902;2023-04-03T07:59:41;3.92;;;1.73;;
38465;SDS011;24244;51.950;5.902;2023-04-03T08:02:09;3.42;;;1.30;;
38465;SDS011;24244;51.950;5.902;2023-04-03T08:04:36;1.40;;;1.05;;
38465;SDS011;24244;51.950;5.902;2023-04-03T08:07:04;1.55;;;1.02;;
38465;SDS011;24244;51.950;5.902;2023-04-03T08:09:34;1.25;;;1.02;;
38465;SDS011;24244;51.950;5.902;2023-04-03T08:12:03;2.47;;;1.30;;
38465;SDS011;24244;51.950;5.902;2023-04-03T08:14:30;1.63;;;1.27;;
38465;SDS011;24244;51.950;5.902;2023-04-03T08:16:57;1.85;;;1.20;;
38465;SDS011;24244;51.950;5.902;2023-04-03T08:19:25;1.77;;;1.33;;
38465;SDS011;24244;51.950;5.902;2023-04-03T08:21:53;2.15;;;0.60;;
38465;SDS011;24244;51.950;5.902;2023-04-03T08:24:21;1.90;;;1.08;;
38465;SDS011;24244;51.950;5.902;2023-04-03T08:26:50;2.08;;;0.80;;
38465;SDS011;24244;51.950;5.902;2023-04-03T08:29:18;3.50;;;1.08;;
38465;SDS011;24244;51.950;5.902;2023-04-03T08:31:47;1.27;;;0.73;;
38465;SDS011;24244;51.950;5.902;2023-04-03T08:34:16;1.20;;;0.95;;
38465;SDS011;24244;51.950;5.902;2023-04-03T08:36:43;2.35;;;0.95;;
38465;SDS011;24244;51.950;5.902;2023-04-03T08:39:10;1.23;;;0.90;;
38465;SDS011;24244;51.950;5.902;2023-04-03T08:41:41;1.08;;;0.93;;
38465;SDS011;24244;51.950;5.902;2023-04-03T08:44:19;1.25;;;1.00;;
38465;SDS011;24244;51.950;5.902;2023-04-03T08:46:56;1.38;;;1.00;;
38465;SDS011;24244;51.950;5.902;2023-04-03T08:49:31;2.05;;;0.93;;
38465;SDS011;24244;51.950;5.902;2023-04-03T08:52:00;0.90;;;0.70;;
38465;SDS011;24244;51.950;5.902;2023-04-03T08:54:33;1.92;;;1.15;;
38465;SDS011;24244;51.950;5.902;2023-04-03T08:57:02;1.42;;;0.73;;
38465;SDS011;24244;51.950;5.902;2023-04-03T08:59:34;0.85;;;0.70;;
38465;SDS011;24244;51.950;5.902;2023-04-03T09:02:13;1.08;;;0.88;;
38465;SDS011;24244;51.950;5.902;2023-04-03T09:04:49;1.35;;;0.93;;
38465;SDS011;24244;51.950;5.902;2023-04-03T09:07:19;1.60;;;0.40;;
38465;SDS011;24244;51.950;5.902;2023-04-03T09:09:59;3.50;;;1.10;;
38465;SDS011;24244;51.950;5.902;2023-04-03T09:12:32;2.60;;;0.55;;
38465;SDS011;24244;51.950;5.902;2023-04-03T09:15:05;1.77;;;0.35;;
38465;SDS011;24244;51.950;5.902;2023-04-03T09:17:51;1.63;;;0.80;;
38465;SDS011;24244;51.950;5.902;2023-04-03T09:20:26;1.77;;;0.90;;
38465;SDS011;24244;51.950;5.902;2023-04-03T09:23:15;1.60;;;0.80;;
38465;SDS011;24244;51.950;5.902;2023-04-03T09:25:49;0.73;;;0.63;;
38465;SDS011;24244;51.950;5.902;2023-04-03T09:28:19;1.00;;;0.63;;
38465;SDS011;24244;51.950;5.902;2023-04-03T09:30:48;1.42;;;0.15;;
38465;SDS011;24244;51.950;5.902;2023-04-03T09:33:15;1.77;;;0.55;;
38465;SDS011;24244;51.950;5.902;2023-04-03T09:35:52;0.50;;;0.20;;
38465;SDS011;24244;51.950;5.902;2023-04-03T09:38:20;0.93;;;0.45;;
38465;SDS011;24244;51.950;5.902;2023-04-03T09:41:02;0.70;;;0.60;;
38465;SDS011;24244;51.950;5.902;2023-04-03T09:43:32;0.98;;;0.70;;
38465;SDS011;24244;51.950;5.902;2023-04-03T09:48:52;2.22;;;0.50;;
38465;SDS011;24244;51.950;5.902;2023-04-03T09:51:38;0.70;;;0.47;;
38465;SDS011;24244;51.950;5.902;2023-04-03T09:57:11;0.80;;;0.60;;
38465;SDS011;24244;51.950;5.902;2023-04-03T09:59:43;0.55;;;0.20;;
38465;SDS011;24244;51.950;5.902;2023-04-03T10:05:02;0.43;;;0.20;;
38465;SDS011;24244;51.950;5.902;2023-04-03T10:07:36;0.70;;;0.47;;
38465;SDS011;24244;51.950;5.902;2023-04-03T10:10:16;0.90;;;0.13;;
38465;SDS011;24244;51.950;5.902;2023-04-03T10:12:49;0.88;;;0.50;;
38465;SDS011;24244;51.950;5.902;2023-04-03T10:15:49;1.42;;;0.20;;
38465;SDS011;24244;51.950;5.902;2023-04-03T10:18:37;1.27;;;0.80;;
38465;SDS011;24244;51.950;5.902;2023-04-03T10:21:13;0.90;;;0.52;;
38465;SDS011;24244;51.950;5.902;2023-04-03T10:23:54;0.35;;;0.13;;
38465;SDS011;24244;51.950;5.902;2023-04-03T10:26:37;0.77;;;0.50;;
38465;SDS011;24244;51.950;5.902;2023-04-03T10:29:15;1.92;;;0.60;;
38465;SDS011;24244;51.950;5.902;2023-04-03T10:31:54;0.60;;;0.50;;
38465;SDS011;24244;51.950;5.902;2023-04-03T10:34:35;0.90;;;0.50;;
38465;SDS011;24244;51.950;5.902;2023-04-03T10:37:11;1.25;;;0.30;;
38465;SDS011;24244;51.950;5.902;2023-04-03T10:39:46;1.58;;;0.30;;
38465;SDS011;24244;51.950;5.902;2023-04-03T10:42:25;2.00;;;0.95;;
38465;SDS011;24244;51.950;5.902;2023-04-03T10:45:07;1.33;;;0.60;;
38465;SDS011;24244;51.950;5.902;2023-04-03T10:47:46;0.93;;;0.82;;
38465;SDS011;24244;51.950;5.902;2023-04-03T10:50:29;1.35;;;0.28;;
38465;SDS011;24244;51.950;5.902;2023-04-03T10:53:06;1.63;;;0.80;;
38465;SDS011;24244;51.950;5.902;2023-04-03T10:55:46;1.20;;;0.60;;
38465;SDS011;24244;51.950;5.902;2023-04-03T10:58:20;0.40;;;0.20;;
38465;SDS011;24244;51.950;5.902;2023-04-03T11:00:57;0.60;;;0.40;;
38465;SDS011;24244;51.950;5.902;2023-04-03T11:03:30;1.02;;;0.22;;
38465;SDS011;24244;51.950;5.902;2023-04-03T11:06:10;0.40;;;0.13;;
38465;SDS011;24244;51.950;5.902;2023-04-03T11:08:42;1.38;;;0.60;;
38465;SDS011;24244;51.950;5.902;2023-04-03T11:11:13;1.23;;;0.63;;
38465;SDS011;24244;51.950;5.902;2023-04-03T11:13:46;0.52;;;0.20;;
38465;SDS011;24244;51.950;5.902;2023-04-03T11:16:22;1.13;;;0.40;;
38465;SDS011;24244;51.950;5.902;2023-04-03T11:18:54;0.63;;;0.20;;
38465;SDS011;24244;51.950;5.902;2023-04-03T11:21:28;1.00;;;0.38;;
38465;SDS011;24244;51.950;5.902;2023-04-03T11:23:58;1.27;;;0.43;;
38465;SDS011;24244;51.950;5.902;2023-04-03T11:26:27;1.30;;;0.60;;
38465;SDS011;24244;51.950;5.902;2023-04-03T11:28:58;1.15;;;0.28;;
38465;SDS011;24244;51.950;5.902;2023-04-03T11:31:39;1.13;;;0.65;;
38465;SDS011;24244;51.950;5.902;2023-04-03T11:34:21;0.80;;;0.17;;
38465;SDS011;24244;51.950;5.902;2023-04-03T11:37:03;0.55;;;0.17;;
38465;SDS011;24244;51.950;5.902;2023-04-03T11:39:38;0.82;;;0.40;;
38465;SDS011;24244;51.950;5.902;2023-04-03T11:42:16;0.88;;;0.40;;
38465;SDS011;24244;51.950;5.902;2023-04-03T11:44:53;0.73;;;0.20;;
38465;SDS011;24244;51.950;5.902;2023-04-03T11:47:53;1.13;;;0.25;;
38465;SDS011;24244;51.950;5.902;2023-04-03T11:53:32;0.68;;;0.43;;
38465;SDS011;24244;51.950;5.902;2023-04-03T11:59:15;0.65;;;0.20;;
38465;SDS011;24244;51.950;5.902;2023-04-03T12:01:54;1.00;;;0.60;;
38465;SDS011;24244;51.950;5.902;2023-04-03T12:04:22;1.25;;;0.50;;
38465;SDS011;24244;51.950;5.902;2023-04-03T12:06:53;0.40;;;0.20;;
38465;SDS011;24244;51.950;5.902;2023-04-03T12:12:33;1.60;;;0.40;;
38465;SDS011;24244;51.950;5.902;2023-04-03T12:15:21;0.95;;;0.45;;
38465;SDS011;24244;51.950;5.902;2023-04-03T12:21:18;1.05;;;0.57;;
38465;SDS011;24244;51.950;5.902;2023-04-03T12:24:02;1.00;;;0.30;;
38465;SDS011;24244;51.950;5.902;2023-04-03T12:26:44;0.90;;;0.60;;
38465;SDS011;24244;51.950;5.902;2023-04-03T12:29:17;0.77;;;0.70;;
38465;SDS011;24244;51.950;5.902;2023-04-03T12:31:55;2.13;;;0.75;;
38465;SDS011;24244;51.950;5.902;2023-04-03T12:34:44;1.02;;;0.50;;
38465;SDS011;24244;51.950;5.902;2023-04-03T12:37:22;1.10;;;0.60;;
38465;SDS011;24244;51.950;5.902;2023-04-03T12:40:07;1.35;;;0.60;;
38465;SDS011;24244;51.950;5.902;2023-04-03T12:42:52;0.85;;;0.57;;
38465;SDS011;24244;51.950;5.902;2023-04-03T12:45:38;1.30;;;0.57;;
38465;SDS011;24244;51.950;5.902;2023-04-03T12:48:12;2.08;;;0.47;;
38465;SDS011;24244;51.950;5.902;2023-04-03T12:50:41;1.65;;;0.30;;
38465;SDS011;24244;51.950;5.902;2023-04-03T12:53:13;1.15;;;0.50;;
38465;SDS011;24244;51.950;5.902;2023-04-03T12:55:44;1.40;;;0.32;;
38465;SDS011;24244;51.950;5.902;2023-04-03T12:58:17;0.43;;;0.20;;
38465;SDS011;24244;51.950;5.902;2023-04-03T13:00:58;0.82;;;0.40;;
38465;SDS011;24244;51.950;5.902;2023-04-03T13:03:30;1.02;;;0.30;;
38465;SDS011;24244;51.950;5.902;2023-04-03T13:05:58;1.67;;;0.73;;
38465;SDS011;24244;51.950;5.902;2023-04-03T13:08:29;1.65;;;0.60;;
38465;SDS011;24244;51.950;5.902;2023-04-03T13:10:58;1.83;;;0.50;;
38465;SDS011;24244;51.950;5.902;2023-04-03T13:13:32;1.15;;;0.25;;
38465;SDS011;24244;51.950;5.902;2023-04-03T13:15:59;1.77;;;0.70;;
38465;SDS011;24244;51.950;5.902;2023-04-03T13:18:36;1.45;;;0.32;;
38465;SDS011;24244;51.950;5.902;2023-04-03T13:21:03;1.48;;;0.65;;
38465;SDS011;24244;51.950;5.902;2023-04-03T13:23:34;1.55;;;0.70;;
38465;SDS011;24244;51.950;5.902;2023-04-03T13:26:04;1.30;;;0.25;;
38465;SDS011;24244;51.950;5.902;2023-04-03T13:28:34;1.35;;;0.50;;
38465;SDS011;24244;51.950;5.902;2023-04-03T13:31:04;1.65;;;0.20;;
38465;SDS011;24244;51.950;5.902;2023-04-03T13:33:36;1.25;;;0.30;;
38465;SDS011;24244;51.950;5.902;2023-04-03T13:36:05;1.67;;;0.47;;
38465;SDS011;24244;51.950;5.902;2023-04-03T13:38:34;1.13;;;0.30;;
38465;SDS011;24244;51.950;5.902;2023-04-03T13:41:03;2.35;;;0.40;;
38465;SDS011;24244;51.950;5.902;2023-04-03T13:43:34;1.70;;;0.50;;
38465;SDS011;24244;51.950;5.902;2023-04-03T13:46:04;0.63;;;0.20;;
38465;SDS011;24244;51.950;5.902;2023-04-03T13:48:48;1.20;;;0.30;;
38465;SDS011;24244;51.950;5.902;2023-04-03T13:51:18;1.77;;;0.28;;
38465;SDS011;24244;51.950;5.902;2023-04-03T13:53:50;1.35;;;0.35;;
38465;SDS011;24244;51.950;5.902;2023-04-03T13:56:25;1.90;;;0.50;;
38465;SDS011;24244;51.950;5.902;2023-04-03T13:59:05;1.13;;;0.47;;
38465;SDS011;24244;51.950;5.902;2023-04-03T14:01:50;1.10;;;0.50;;
38465;SDS011;24244;51.950;5.902;2023-04-03T14:04:21;1.77;;;0.40;;
38465;SDS011;24244;51.950;5.902;2023-04-03T14:06:49;1.15;;;0.80;;
38465;SDS011;24244;51.950;5.902;2023-04-03T14:09:18;2.35;;;0.25;;
38465;SDS011;24244;51.950;5.902;2023-04-03T14:11:46;2.00;;;0.55;;
38465;SDS011;24244;51.950;5.902;2023-04-03T14:14:17;1.00;;;0.40;;
38465;SDS011;24244;51.950;5.902;2023-04-03T14:16:48;0.90;;;0.20;;
38465;SDS011;24244;51.950;5.902;2023-04-03T14:19:20;1.20;;;0.32;;
38465;SDS011;24244;51.950;5.902;2023-04-03T14:21:49;1.42;;;0.63;;
38465;SDS011;24244;51.950;5.902;2023-04-03T14:24:17;0.95;;;0.60;;
38465;SDS011;24244;51.950;5.902;2023-04-03T14:26:45;1.48;;;0.80;;
38465;SDS011;24244;51.950;5.902;2023-04-03T14:29:13;1.52;;;0.32;;
38465;SDS011;24244;51.950;5.902;2023-04-03T14:31:43;1.38;;;0.82;;
38465;SDS011;24244;51.950;5.902;2023-04-03T14:34:12;1.30;;;0.60;;
38465;SDS011;24244;51.950;5.902;2023-04-03T14:36:40;1.15;;;0.50;;
38465;SDS011;24244;51.950;5.902;2023-04-03T14:39:11;1.80;;;0.88;;
38465;SDS011;24244;51.950;5.902;2023-04-03T14:41:43;1.75;;;0.80;;
38465;SDS011;24244;51.950;5.902;2023-04-03T14:44:11;1.38;;;0.60;;
38465;SDS011;24244;51.950;5.902;2023-04-03T14:46:39;0.90;;;0.40;;
38465;SDS011;24244;51.950;5.902;2023-04-03T14:49:24;1.70;;;0.32;;
38465;SDS011;24244;51.950;5.902;2023-04-03T14:51:52;1.35;;;0.30;;
38465;SDS011;24244;51.950;5.902;2023-04-03T14:54:20;2.17;;;0.73;;
38465;SDS011;24244;51.950;5.902;2023-04-03T14:56:52;2.05;;;0.77;;
38465;SDS011;24244;51.950;5.902;2023-04-03T14:59:19;1.20;;;0.63;;
38465;SDS011;24244;51.950;5.902;2023-04-03T15:01:48;2.58;;;0.88;;
38465;SDS011;24244;51.950;5.902;2023-04-03T15:04:16;1.10;;;0.30;;
38465;SDS011;24244;51.950;5.902;2023-04-03T15:06:47;1.30;;;0.28;;
38465;SDS011;24244;51.950;5.902;2023-04-03T15:09:18;1.85;;;0.43;;
38465;SDS011;24244;51.950;5.902;2023-04-03T15:11:48;2.65;;;0.70;;
38465;SDS011;24244;51.950;5.902;2023-04-03T15:14:16;1.63;;;0.30;;
38465;SDS011;24244;51.950;5.902;2023-04-03T15:17:01;1.77;;;0.40;;
38465;SDS011;24244;51.950;5.902;2023-04-03T15:19:30;2.35;;;1.00;;
38465;SDS011;24244;51.950;5.902;2023-04-03T15:21:59;2.90;;;0.50;;
38465;SDS011;24244;51.950;5.902;2023-04-03T15:24:26;2.35;;;0.40;;
38465;SDS011;24244;51.950;5.902;2023-04-03T15:26:53;1.23;;;0.60;;
38465;SDS011;24244;51.950;5.902;2023-04-03T15:29:20;2.00;;;0.88;;
38465;SDS011;24244;51.950;5.902;2023-04-03T15:31:47;3.08;;;0.30;;
38465;SDS011;24244;51.950;5.902;2023-04-03T15:34:16;1.65;;;0.90;;
38465;SDS011;24244;51.950;5.902;2023-04-03T15:36:43;1.35;;;0.43;;
38465;SDS011;24244;51.950;5.902;2023-04-03T15:39:12;2.75;;;0.38;;